Washington — WDC3825 — position and weather

sailwx.info

Track history (hours):
 
Tides and Currents Weather Stations Pressure Air Temp Water Temp Dewpoint Dewpoint Depression Visibility Wind Speed Wind Dir Waves Ship Positions

Washington

Owner: Peoria Harbor Service, Creve Coeur, IL. More information available from US FCC via Universal Licensing System.

Last reported at 2014-Nov-01 11:06 UTC. Time now 2014-Nov-01 13:28 UTC.
Position N 45°39' W 122°45'.

Length 29 m; draft 5 m.

Type: Tug. MMSI: 367530040.

Date/timePositionNaut miles runAvg speedWind from/ knotsBaromVisibWave heightAir tempDewpointWater temp
2014-Nov-01 11:06N 45°39' W 122°45'2 4.4
2014-Nov-01 10:33N 45°38' W 122°42'4 0.2
2014-Oct-31 08:03N 45°34' W 122°44'0 0.0
2014-Oct-31 07:34N 45°34' W 122°44'2 2.4
2014-Oct-31 06:33N 45°32' W 122°41'2 2.4
2014-Oct-31 05:32N 45°34' W 122°44'2 1.6
2014-Oct-31 04:33N 45°35' W 122°45'4 3.6
2014-Oct-31 03:28N 45°38' W 122°43'0 0.3
2014-Oct-31 02:33N 45°38' W 122°43'1 1.3
2014-Oct-31 01:33N 45°39' W 122°45'6 5.6
2014-Oct-31 00:33N 45°33' W 122°43'2 2.1
2014-Oct-30 23:28N 45°32' W 122°41'1 1.3
2014-Oct-30 22:33N 45°33' W 122°42'2 1.9
2014-Oct-30 21:27N 45°34' W 122°44'1 0.7
2014-Oct-30 20:33N 45°34' W 122°44'0 0.0
2014-Oct-30 19:27N 45°34' W 122°44'0 0.0
2014-Oct-30 18:33N 45°34' W 122°44'0 0.0
2014-Oct-30 17:33N 45°34' W 122°44'0 0.0
2014-Oct-30 16:33N 45°34' W 122°44'0 0.0
2014-Oct-30 15:30N 45°34' W 122°44'0 0.0
2014-Oct-30 14:33N 45°34' W 122°44'0 0.0
2014-Oct-30 13:33N 45°34' W 122°44'0 0.0
2014-Oct-30 12:33N 45°34' W 122°44'0 0.0
2014-Oct-30 11:33N 45°34' W 122°44'0 0.0
2014-Oct-30 10:33N 45°34' W 122°44'0 0.0
2014-Oct-30 09:33N 45°34' W 122°44'0 0.0
2014-Oct-30 08:33N 45°34' W 122°44'0 0.0
2014-Oct-30 07:33N 45°34' W 122°44'0 0.0
2014-Oct-30 06:33N 45°34' W 122°44'0 0.0
2014-Oct-30 05:33N 45°34' W 122°44'0 0.0
2014-Oct-30 04:33N 45°34' W 122°44'0 0.0
2014-Oct-30 03:33N 45°34' W 122°44'0 0.0
2014-Oct-30 02:33N 45°34' W 122°44'0 0.0
2014-Oct-30 01:33N 45°34' W 122°44'0 0.0
2014-Oct-30 00:33N 45°34' W 122°44'1 0.6
2014-Oct-29 23:33N 45°33' W 122°43'2 2.1
2014-Oct-29 22:34N 45°32' W 122°41'0 0.0
2014-Oct-29 21:33N 45°32' W 122°41'2 2.4
2014-Oct-29 20:33N 45°34' W 122°43'0 0.3
2014-Oct-29 19:33N 45°34' W 122°44'0 0.0
2014-Oct-29 18:33N 45°34' W 122°44'0 0.0
2014-Oct-29 17:33N 45°34' W 122°44'0 0.0
2014-Oct-29 16:33N 45°34' W 122°44'0 0.0
2014-Oct-29 15:33N 45°34' W 122°44'0 0.0
2014-Oct-29 14:33N 45°34' W 122°44'0 0.0
2014-Oct-29 13:33N 45°34' W 122°44'0 0.0
2014-Oct-29 12:33N 45°34' W 122°44'0 0.0
2014-Oct-29 11:33N 45°34' W 122°44'0 0.0
2014-Oct-29 10:33N 45°34' W 122°44'0 0.0
2014-Oct-29 09:33N 45°34' W 122°44'0 0.0
2014-Oct-29 08:33N 45°34' W 122°44'0 0.0
2014-Oct-29 07:33N 45°34' W 122°44'0 0.0
2014-Oct-29 06:33N 45°34' W 122°44'0 0.0
2014-Oct-29 05:33N 45°34' W 122°44'0 0.0
2014-Oct-29 04:33N 45°34' W 122°44'0 0.0
2014-Oct-29 03:33N 45°34' W 122°44'0 0.0
2014-Oct-29 02:33N 45°34' W 122°44'3 3.4
2014-Oct-29 01:33N 45°36' W 122°47'3 2.9
2014-Oct-29 00:33N 45°39' W 122°45'0 0.3
2014-Oct-28 23:32N 45°39' W 122°45'0 0.0
2014-Oct-28 22:14N 45°39' W 122°45'0 0.0
2014-Oct-28 21:33N 45°39' W 122°45'2 2.1
2014-Oct-28 20:26N 45°38' W 122°42'2 2.7
2014-Oct-28 19:33N 45°39' W 122°45'0 0.0
2014-Oct-28 18:30N 45°39' W 122°45'0 0.0
2014-Oct-28 17:27N 45°39' W 122°45'0 0.0
2014-Oct-28 16:30N 45°39' W 122°45'0 0.0
2014-Oct-28 15:33N 45°39' W 122°45'0 0.0
2014-Oct-28 14:30N 45°39' W 122°45'0 0.0
2014-Oct-28 13:27N 45°39' W 122°45'0 0.0
2014-Oct-28 12:30N 45°39' W 122°45'0 0.0
2014-Oct-28 11:33N 45°39' W 122°45'0 0.0
2014-Oct-28 10:33N 45°39' W 122°45'0 0.0
2014-Oct-28 09:33N 45°39' W 122°45'0 0.0
2014-Oct-28 08:30N 45°39' W 122°45'0 0.0
2014-Oct-28 07:30N 45°39' W 122°45'0 0.0
2014-Oct-28 06:30N 45°39' W 122°45'0 0.0
2014-Oct-28 05:33N 45°39' W 122°45'0 0.0
2014-Oct-28 04:33N 45°39' W 122°45'0 0.0
2014-Oct-28 03:30N 45°39' W 122°45'0 0.0
2014-Oct-28 02:30N 45°39' W 122°45'0 0.0
2014-Oct-28 01:30N 45°39' W 122°45'0 0.3
2014-Oct-28 00:34N 45°38' W 122°45'1 0.7
2014-Oct-27 23:33N 45°39' W 122°45'0 0.5
2014-Oct-27 22:34N 45°39' W 122°45'0 0.0
2014-Oct-27 21:34N 45°39' W 122°45'0 0.0
2014-Oct-27 20:33N 45°39' W 122°45'0 0.0
2014-Oct-27 19:30N 45°39' W 122°45'0 0.0
2014-Oct-27 18:31N 45°39' W 122°45'0 0.0
2014-Oct-27 17:30N 45°39' W 122°45'0 0.0
2014-Oct-27 16:33N 45°39' W 122°45'0 0.0
2014-Oct-27 15:30N 45°39' W 122°45'0 0.0
2014-Oct-27 14:28N 45°39' W 122°45'0 0.0
2014-Oct-27 13:30N 45°39' W 122°45'0 0.0
2014-Oct-27 12:33N 45°39' W 122°45'0 0.0
2014-Oct-27 11:33N 45°39' W 122°45'0 0.0
2014-Oct-27 10:30N 45°39' W 122°45'0 0.0
2014-Oct-27 09:33N 45°39' W 122°45'0 0.0
2014-Oct-27 08:33N 45°39' W 122°45'3 2.5
2014-Oct-27 07:32N 45°38' W 122°42'1 1.1
2014-Oct-27 06:33N 45°38' W 122°43'1 0.8
2014-Oct-27 05:33N 45°38' W 122°42'2 2.2
2014-Oct-27 04:33N 45°39' W 122°45'0 0.0
2014-Oct-27 03:33N 45°39' W 122°45'0 0.0
2014-Oct-27 02:33N 45°39' W 122°45'0 0.0
2014-Oct-27 01:34N 45°39' W 122°45'2 2.2
2014-Oct-27 00:34N 45°38' W 122°42'3 2.8
2014-Oct-26 23:33N 45°39' W 122°46'6 5.7
2014-Oct-26 22:33N 45°34' W 122°44'0 0.0
2014-Oct-26 21:33N 45°34' W 122°44'0 0.0
2014-Oct-26 20:33N 45°34' W 122°44'0 0.0
2014-Oct-26 19:33N 45°34' W 122°44'0 0.0
2014-Oct-26 18:34N 45°34' W 122°44'0 0.0
2014-Oct-26 17:34N 45°34' W 122°44'0 0.0
2014-Oct-26 16:34N 45°34' W 122°44'0 0.0
2014-Oct-26 15:34N 45°34' W 122°44'0 0.0
2014-Oct-26 14:33N 45°34' W 122°44'0 0.0
2014-Oct-26 13:33N 45°34' W 122°44'0 0.0
2014-Oct-26 12:33N 45°34' W 122°44'0 0.0
2014-Oct-26 11:33N 45°34' W 122°44'0 0.0
2014-Oct-26 10:33N 45°34' W 122°44'0 0.0
2014-Oct-26 09:33N 45°34' W 122°44'0 0.0
2014-Oct-26 08:33N 45°34' W 122°44'0 0.0
2014-Oct-26 07:33N 45°34' W 122°44'0 0.0
2014-Oct-26 06:33N 45°34' W 122°44'0 0.0
2014-Oct-26 05:34N 45°34' W 122°44'0 0.0
2014-Oct-26 04:33N 45°34' W 122°44'0 0.0
2014-Oct-26 03:34N 45°34' W 122°44'0 0.0
2014-Oct-26 02:34N 45°34' W 122°44'0 0.0
2014-Oct-26 01:33N 45°34' W 122°44'0 0.0
2014-Oct-26 00:34N 45°34' W 122°44'0 0.0
2014-Oct-25 23:33N 45°34' W 122°44'0 0.0
2014-Oct-25 22:33N 45°34' W 122°44'1 1.1
2014-Oct-25 21:33N 45°35' W 122°45'2 1.8
2014-Oct-25 20:33N 45°36' W 122°47'2 2.3
2014-Oct-25 19:33N 45°34' W 122°44'  
Track history (hours):
 
Tides and Currents Weather Stations Pressure Air Temp Water Temp Dewpoint Dewpoint Depression Visibility Wind Speed Wind Dir Waves Ship Positions

Washington

Owner: Peoria Harbor Service, Creve Coeur, IL. More information available from US FCC via Universal Licensing System.

Last reported at 2014-Nov-01 11:06 UTC. Time now 2014-Nov-01 13:28 UTC.
Position N 45°39' W 122°45'.

Length 29 m; draft 5 m.

Type: Tug. MMSI: 367530040.

Date/timePositionNaut miles runAvg speedWind from/ knotsBaromVisibWave heightAir tempDewpointWater temp
2014-Nov-01 11:06N 45°39' W 122°45'2 4.4
2014-Nov-01 10:33N 45°38' W 122°42'4 0.2
2014-Oct-31 08:03N 45°34' W 122°44'0 0.0
2014-Oct-31 07:34N 45°34' W 122°44'2 2.4
2014-Oct-31 06:33N 45°32' W 122°41'2 2.4
2014-Oct-31 05:32N 45°34' W 122°44'2 1.6
2014-Oct-31 04:33N 45°35' W 122°45'4 3.6
2014-Oct-31 03:28N 45°38' W 122°43'0 0.3
2014-Oct-31 02:33N 45°38' W 122°43'1 1.3
2014-Oct-31 01:33N 45°39' W 122°45'6 5.6
2014-Oct-31 00:33N 45°33' W 122°43'2 2.1
2014-Oct-30 23:28N 45°32' W 122°41'1 1.3
2014-Oct-30 22:33N 45°33' W 122°42'2 1.9
2014-Oct-30 21:27N 45°34' W 122°44'1 0.7
2014-Oct-30 20:33N 45°34' W 122°44'0 0.0
2014-Oct-30 19:27N 45°34' W 122°44'0 0.0
2014-Oct-30 18:33N 45°34' W 122°44'0 0.0
2014-Oct-30 17:33N 45°34' W 122°44'0 0.0
2014-Oct-30 16:33N 45°34' W 122°44'0 0.0
2014-Oct-30 15:30N 45°34' W 122°44'0 0.0
2014-Oct-30 14:33N 45°34' W 122°44'0 0.0
2014-Oct-30 13:33N 45°34' W 122°44'0 0.0
2014-Oct-30 12:33N 45°34' W 122°44'0 0.0
2014-Oct-30 11:33N 45°34' W 122°44'0 0.0
2014-Oct-30 10:33N 45°34' W 122°44'0 0.0
2014-Oct-30 09:33N 45°34' W 122°44'0 0.0
2014-Oct-30 08:33N 45°34' W 122°44'0 0.0
2014-Oct-30 07:33N 45°34' W 122°44'0 0.0
2014-Oct-30 06:33N 45°34' W 122°44'0 0.0
2014-Oct-30 05:33N 45°34' W 122°44'0 0.0
2014-Oct-30 04:33N 45°34' W 122°44'0 0.0
2014-Oct-30 03:33N 45°34' W 122°44'0 0.0
2014-Oct-30 02:33N 45°34' W 122°44'0 0.0
2014-Oct-30 01:33N 45°34' W 122°44'0 0.0
2014-Oct-30 00:33N 45°34' W 122°44'1 0.6
2014-Oct-29 23:33N 45°33' W 122°43'2 2.1
2014-Oct-29 22:34N 45°32' W 122°41'0 0.0
2014-Oct-29 21:33N 45°32' W 122°41'2 2.4
2014-Oct-29 20:33N 45°34' W 122°43'0 0.3
2014-Oct-29 19:33N 45°34' W 122°44'0 0.0
2014-Oct-29 18:33N 45°34' W 122°44'0 0.0
2014-Oct-29 17:33N 45°34' W 122°44'0 0.0
2014-Oct-29 16:33N 45°34' W 122°44'0 0.0
2014-Oct-29 15:33N 45°34' W 122°44'0 0.0
2014-Oct-29 14:33N 45°34' W 122°44'0 0.0
2014-Oct-29 13:33N 45°34' W 122°44'0 0.0
2014-Oct-29 12:33N 45°34' W 122°44'0 0.0
2014-Oct-29 11:33N 45°34' W 122°44'0 0.0
2014-Oct-29 10:33N 45°34' W 122°44'0 0.0
2014-Oct-29 09:33N 45°34' W 122°44'0 0.0
2014-Oct-29 08:33N 45°34' W 122°44'0 0.0
2014-Oct-29 07:33N 45°34' W 122°44'0 0.0
2014-Oct-29 06:33N 45°34' W 122°44'0 0.0
2014-Oct-29 05:33N 45°34' W 122°44'0 0.0
2014-Oct-29 04:33N 45°34' W 122°44'0 0.0
2014-Oct-29 03:33N 45°34' W 122°44'0 0.0
2014-Oct-29 02:33N 45°34' W 122°44'3 3.4
2014-Oct-29 01:33N 45°36' W 122°47'3 2.9
2014-Oct-29 00:33N 45°39' W 122°45'0 0.3
2014-Oct-28 23:32N 45°39' W 122°45'0 0.0
2014-Oct-28 22:14N 45°39' W 122°45'0 0.0
2014-Oct-28 21:33N 45°39' W 122°45'2 2.1
2014-Oct-28 20:26N 45°38' W 122°42'2 2.7
2014-Oct-28 19:33N 45°39' W 122°45'0 0.0
2014-Oct-28 18:30N 45°39' W 122°45'0 0.0
2014-Oct-28 17:27N 45°39' W 122°45'0 0.0
2014-Oct-28 16:30N 45°39' W 122°45'0 0.0
2014-Oct-28 15:33N 45°39' W 122°45'0 0.0
2014-Oct-28 14:30N 45°39' W 122°45'0 0.0
2014-Oct-28 13:27N 45°39' W 122°45'0 0.0
2014-Oct-28 12:30N 45°39' W 122°45'0 0.0
2014-Oct-28 11:33N 45°39' W 122°45'0 0.0
2014-Oct-28 10:33N 45°39' W 122°45'0 0.0
2014-Oct-28 09:33N 45°39' W 122°45'0 0.0
2014-Oct-28 08:30N 45°39' W 122°45'0 0.0
2014-Oct-28 07:30N 45°39' W 122°45'0 0.0
2014-Oct-28 06:30N 45°39' W 122°45'0 0.0
2014-Oct-28 05:33N 45°39' W 122°45'0 0.0
2014-Oct-28 04:33N 45°39' W 122°45'0 0.0
2014-Oct-28 03:30N 45°39' W 122°45'0 0.0
2014-Oct-28 02:30N 45°39' W 122°45'0 0.0
2014-Oct-28 01:30N 45°39' W 122°45'0 0.3
2014-Oct-28 00:34N 45°38' W 122°45'1 0.7
2014-Oct-27 23:33N 45°39' W 122°45'0 0.5
2014-Oct-27 22:34N 45°39' W 122°45'0 0.0
2014-Oct-27 21:34N 45°39' W 122°45'0 0.0
2014-Oct-27 20:33N 45°39' W 122°45'0 0.0
2014-Oct-27 19:30N 45°39' W 122°45'0 0.0
2014-Oct-27 18:31N 45°39' W 122°45'0 0.0
2014-Oct-27 17:30N 45°39' W 122°45'0 0.0
2014-Oct-27 16:33N 45°39' W 122°45'0 0.0
2014-Oct-27 15:30N 45°39' W 122°45'0 0.0
2014-Oct-27 14:28N 45°39' W 122°45'0 0.0
2014-Oct-27 13:30N 45°39' W 122°45'0 0.0
2014-Oct-27 12:33N 45°39' W 122°45'0 0.0
2014-Oct-27 11:33N 45°39' W 122°45'0 0.0
2014-Oct-27 10:30N 45°39' W 122°45'0 0.0
2014-Oct-27 09:33N 45°39' W 122°45'0 0.0
2014-Oct-27 08:33N 45°39' W 122°45'3 2.5
2014-Oct-27 07:32N 45°38' W 122°42'1 1.1
2014-Oct-27 06:33N 45°38' W 122°43'1 0.8
2014-Oct-27 05:33N 45°38' W 122°42'2 2.2
2014-Oct-27 04:33N 45°39' W 122°45'0 0.0
2014-Oct-27 03:33N 45°39' W 122°45'0 0.0
2014-Oct-27 02:33N 45°39' W 122°45'0 0.0
2014-Oct-27 01:34N 45°39' W 122°45'2 2.2
2014-Oct-27 00:34N 45°38' W 122°42'3 2.8
2014-Oct-26 23:33N 45°39' W 122°46'6 5.7
2014-Oct-26 22:33N 45°34' W 122°44'0 0.0
2014-Oct-26 21:33N 45°34' W 122°44'0 0.0
2014-Oct-26 20:33N 45°34' W 122°44'0 0.0
2014-Oct-26 19:33N 45°34' W 122°44'0 0.0
2014-Oct-26 18:34N 45°34' W 122°44'0 0.0
2014-Oct-26 17:34N 45°34' W 122°44'0 0.0
2014-Oct-26 16:34N 45°34' W 122°44'0 0.0
2014-Oct-26 15:34N 45°34' W 122°44'0 0.0
2014-Oct-26 14:33N 45°34' W 122°44'0 0.0
2014-Oct-26 13:33N 45°34' W 122°44'0 0.0
2014-Oct-26 12:33N 45°34' W 122°44'0 0.0
2014-Oct-26 11:33N 45°34' W 122°44'0 0.0
2014-Oct-26 10:33N 45°34' W 122°44'0 0.0
2014-Oct-26 09:33N 45°34' W 122°44'0 0.0
2014-Oct-26 08:33N 45°34' W 122°44'0 0.0
2014-Oct-26 07:33N 45°34' W 122°44'0 0.0
2014-Oct-26 06:33N 45°34' W 122°44'0 0.0
2014-Oct-26 05:34N 45°34' W 122°44'0 0.0
2014-Oct-26 04:33N 45°34' W 122°44'0 0.0
2014-Oct-26 03:34N 45°34' W 122°44'0 0.0
2014-Oct-26 02:34N 45°34' W 122°44'0 0.0
2014-Oct-26 01:33N 45°34' W 122°44'0 0.0
2014-Oct-26 00:34N 45°34' W 122°44'0 0.0
2014-Oct-25 23:33N 45°34' W 122°44'0 0.0
2014-Oct-25 22:33N 45°34' W 122°44'1 1.1
2014-Oct-25 21:33N 45°35' W 122°45'2 1.8
2014-Oct-25 20:33N 45°36' W 122°47'2 2.3
2014-Oct-25 19:33N 45°34' W 122°44'  

Dump ship's entire track history